Time;durP1;ratioP1;P1;durP2;ratioP2;P2;SDS_P1;SDS_P2;PMS_P1;PMS_P2;Temp;Humidity;BMP_temperature;BMP_pressure;BME280_temperature;BME280_humidity;BME280_pressure;Samples;Min_cycle;Max_cycle;Signal;HPM_P1;HPM_P2
2022/03/06 00:01:50;;;;;;;20.37;13.50;;;3.30;96.20;;;;;;5035318;28;20254;-68
2022/03/06 00:04:16;;;;;;;19.87;14.17;;;3.30;96.20;;;;;;5035029;28;20200;-68
2022/03/06 00:06:42;;;;;;;17.90;13.53;;;3.40;96.20;;;;;;5035253;28;20180;-70
2022/03/06 00:09:07;;;;;;;22.77;14.57;;;3.40;96.30;;;;;;5034323;28;20230;-69
2022/03/06 00:11:33;;;;;;;20.40;14.30;;;3.40;96.20;;;;;;5035103;28;20180;-68
2022/03/06 00:13:58;;;;;;;19.43;14.23;;;3.40;96.30;;;;;;5034944;28;20175;-69
2022/03/06 00:16:24;;;;;;;18.20;13.10;;;3.40;96.20;;;;;;5034643;28;20252;-68
2022/03/06 00:18:49;;;;;;;19.37;13.17;;;3.40;96.10;;;;;;5033709;28;20208;-68
2022/03/06 00:21:15;;;;;;;17.30;13.13;;;3.40;96.20;;;;;;5034643;28;20208;-68
2022/03/06 00:23:41;;;;;;;18.10;13.53;;;3.30;96.50;;;;;;5034547;28;20593;-68
2022/03/06 00:26:07;;;;;;;21.67;13.67;;;3.20;96.90;;;;;;5034890;28;20256;-68
2022/03/06 00:28:33;;;;;;;18.80;14.20;;;3.10;97.00;;;;;;5034069;28;20594;-68
2022/03/06 00:30:59;;;;;;;17.87;13.83;;;3.00;97.10;;;;;;5034850;28;20452;-68
2022/03/06 00:33:24;;;;;;;22.10;13.80;;;3.10;97.40;;;;;;5016598;28;20453;-68
2022/03/06 00:35:50;;;;;;;19.93;14.00;;;3.10;97.50;;;;;;5034604;28;20184;-69
2022/03/06 00:38:16;;;;;;;19.13;13.07;;;3.10;97.60;;;;;;5034212;28;20203;-68
2022/03/06 00:40:44;;;;;;;18.23;13.13;;;3.10;97.80;;;;;;5034300;28;20212;-69
2022/03/06 00:43:10;;;;;;;17.67;13.67;;;3.00;97.60;;;;;;5034194;28;20256;-68
2022/03/06 00:45:36;;;;;;;21.23;13.83;;;3.00;97.80;;;;;;5034034;28;20494;-68
2022/03/06 00:48:01;;;;;;;18.73;13.20;;;2.90;98.30;;;;;;5034307;28;20259;-69
2022/03/06 00:50:27;;;;;;;19.07;12.90;;;2.90;98.30;;;;;;5034053;28;20177;-68
2022/03/06 00:52:53;;;;;;;18.97;12.73;;;3.00;98.10;;;;;;5033869;28;20252;-69
2022/03/06 00:55:19;;;;;;;25.43;14.90;;;3.00;97.90;;;;;;5034050;28;20634;-68
2022/03/06 00:57:44;;;;;;;18.97;12.90;;;3.00;98.00;;;;;;5034057;28;20225;-68
2022/03/06 01:00:10;;;;;;;19.87;14.17;;;2.90;98.10;;;;;;5033987;28;20182;-68
2022/03/06 01:02:36;;;;;;;19.13;12.90;;;2.90;98.20;;;;;;5033617;28;20181;-68
2022/03/06 01:05:02;;;;;;;18.50;12.63;;;2.90;98.40;;;;;;5033679;28;20416;-68
2022/03/06 01:07:28;;;;;;;20.90;14.60;;;2.80;98.70;;;;;;5033986;28;20184;-68
2022/03/06 01:09:53;;;;;;;19.10;13.27;;;2.70;98.90;;;;;;5038116;28;20518;-68
2022/03/06 01:12:20;;;;;;;19.03;12.80;;;2.70;98.90;;;;;;5033783;28;20180;-68
2022/03/06 01:14:46;;;;;;;17.97;12.80;;;2.60;99.50;;;;;;5034064;28;20176;-69
2022/03/06 01:17:11;;;;;;;16.27;12.50;;;2.40;99.80;;;;;;5034237;28;20422;-69
2022/03/06 01:19:37;;;;;;;17.90;13.10;;;2.30;99.90;;;;;;5034652;28;20209;-69
2022/03/06 01:22:03;;;;;;;20.47;13.53;;;2.30;99.90;;;;;;5033923;28;20198;-69
2022/03/06 01:24:28;;;;;;;18.50;12.90;;;2.30;99.90;;;;;;5034468;28;20203;-68
2022/03/06 01:26:54;;;;;;;17.37;12.53;;;2.40;99.90;;;;;;5034169;28;20422;-70
2022/03/06 01:29:22;;;;;;;16.63;12.53;;;2.50;99.90;;;;;;5033655;28;20200;-68
2022/03/06 01:31:48;;;;;;;16.60;11.93;;;2.50;99.80;;;;;;5033665;28;20183;-68
2022/03/06 01:34:14;;;;;;;16.10;11.77;;;2.30;99.90;;;;;;5033926;28;20442;-68
2022/03/06 01:36:39;;;;;;;19.83;13.20;;;2.20;99.90;;;;;;5033630;28;20418;-69
2022/03/06 01:39:06;;;;;;;17.00;12.33;;;2.10;99.90;;;;;;5034095;28;20190;-68
2022/03/06 01:41:35;;;;;;;16.40;10.97;;;2.10;99.90;;;;;;5034043;28;20179;-68
2022/03/06 01:44:02;;;;;;;17.73;12.10;;;2.20;99.90;;;;;;5034048;28;20481;-68
2022/03/06 01:46:27;;;;;;;16.67;12.20;;;2.30;99.90;;;;;;5033492;28;20406;-69
2022/03/06 01:48:53;;;;;;;17.13;12.53;;;2.30;99.90;;;;;;5033286;28;20816;-68
2022/03/06 01:51:19;;;;;;;17.20;12.13;;;2.30;99.90;;;;;;5033816;28;20171;-69
2022/03/06 01:53:44;;;;;;;17.70;13.27;;;2.20;99.90;;;;;;5033649;28;20183;-69
2022/03/06 01:56:12;;;;;;;16.40;12.40;;;2.10;99.90;;;;;;5033543;28;20181;-69
2022/03/06 01:58:39;;;;;;;17.03;12.37;;;2.00;99.90;;;;;;5033129;28;20219;-68
2022/03/06 02:01:05;;;;;;;20.70;12.23;;;1.90;99.90;;;;;;5033576;28;20830;-69
2022/03/06 02:03:30;;;;;;;18.17;12.20;;;1.90;99.90;;;;;;5033177;28;20409;-69
2022/03/06 02:05:56;;;;;;;22.97;13.67;;;1.90;99.90;;;;;;5033611;28;20171;-68
2022/03/06 02:08:21;;;;;;;20.40;11.27;;;1.90;99.90;;;;;;5033567;28;20195;-68
2022/03/06 02:10:49;;;;;;;25.40;13.37;;;1.90;99.90;;;;;;5033560;28;20173;-68
2022/03/06 02:13:15;;;;;;;19.23;11.90;;;1.90;99.90;;;;;;5015467;28;20517;-68
2022/03/06 02:15:41;;;;;;;16.10;11.80;;;1.90;99.90;;;;;;5033309;28;20412;-68
2022/03/06 02:18:06;;;;;;;19.63;12.00;;;1.80;99.90;;;;;;5033006;28;20668;-68
2022/03/06 02:20:33;;;;;;;16.53;11.00;;;1.90;99.90;;;;;;5033455;28;20528;-68
2022/03/06 02:22:59;;;;;;;18.40;12.10;;;1.90;99.90;;;;;;5032953;28;20221;-69
2022/03/06 02:25:29;;;;;;;16.57;12.33;;;2.00;99.90;;;;;;5032519;28;20787;-69
2022/03/06 02:28:00;;;;;;;16.60;11.30;;;2.00;99.90;;;;;;5033583;28;20506;-69
2022/03/06 02:30:30;;;;;;;18.10;11.80;;;2.10;99.90;;;;;;5015553;28;20449;-69
2022/03/06 02:32:58;;;;;;;19.23;11.80;;;2.10;99.90;;;;;;5033638;28;20394;-69
2022/03/06 02:35:24;;;;;;;17.13;11.87;;;2.10;99.90;;;;;;5015793;28;20411;-68
2022/03/06 02:37:49;;;;;;;17.07;12.23;;;2.10;99.90;;;;;;5032592;28;20422;-68
2022/03/06 02:40:16;;;;;;;16.97;11.33;;;2.00;99.90;;;;;;5032934;28;20906;-69
2022/03/06 02:42:45;;;;;;;15.80;11.73;;;1.90;99.90;;;;;;5035206;28;20171;-70
2022/03/06 02:45:40;;;;;;;18.63;12.53;;;1.90;99.90;;;;;;5036855;28;20419;-69
2022/03/06 02:48:06;;;;;;;18.00;11.50;;;1.80;99.90;;;;;;5033464;28;20532;-69
2022/03/06 02:50:34;;;;;;;17.83;12.60;;;1.70;99.90;;;;;;5037336;28;20414;-70
2022/03/06 02:53:02;;;;;;;16.27;11.53;;;1.70;99.90;;;;;;5036705;28;20420;-69
2022/03/06 02:55:28;;;;;;;16.20;12.23;;;1.80;99.90;;;;;;5036836;28;20446;-69
2022/03/06 02:57:54;;;;;;;15.83;11.13;;;1.80;99.90;;;;;;5035899;28;20474;-69
2022/03/06 03:00:21;;;;;;;15.30;12.20;;;1.90;99.90;;;;;;5038960;28;20772;-72
2022/03/06 03:02:48;;;;;;;20.30;12.27;;;1.90;99.90;;;;;;5037349;28;20401;-69
2022/03/06 03:05:15;;;;;;;16.27;10.53;;;1.90;99.90;;;;;;5038418;28;20833;-70
2022/03/06 03:07:49;;;;;;;18.73;12.73;;;2.00;99.90;;;;;;5037110;28;20440;-69
2022/03/06 03:10:17;;;;;;;18.47;12.03;;;2.10;99.90;;;;;;5036825;28;20772;-69
2022/03/06 03:12:44;;;;;;;22.47;13.57;;;2.20;99.90;;;;;;5018492;28;20435;-69
2022/03/06 03:15:10;;;;;;;15.60;12.37;;;2.20;99.90;;;;;;5042411;28;20774;-69
2022/03/06 03:17:36;;;;;;;20.40;12.13;;;2.30;99.90;;;;;;5042607;28;20885;-68
2022/03/06 03:20:03;;;;;;;19.57;12.70;;;2.30;99.90;;;;;;5042552;28;20405;-69
2022/03/06 03:22:29;;;;;;;20.43;12.87;;;2.30;99.90;;;;;;5024761;28;20476;-69
2022/03/06 03:24:54;;;;;;;20.13;13.40;;;2.30;99.90;;;;;;5043069;28;20446;-69
2022/03/06 03:27:20;;;;;;;15.00;11.87;;;2.30;99.90;;;;;;5043366;28;20184;-69
2022/03/06 03:29:45;;;;;;;16.90;12.73;;;2.20;99.90;;;;;;5041553;28;20203;-69
2022/03/06 03:32:11;;;;;;;23.40;13.80;;;2.20;99.90;;;;;;5044586;28;20179;-69
2022/03/06 03:34:37;;;;;;;19.40;12.80;;;2.20;99.90;;;;;;5020800;28;20191;-69
2022/03/06 03:37:02;;;;;;;15.93;12.70;;;2.30;99.90;;;;;;5019172;28;20184;-69
2022/03/06 03:39:28;;;;;;;21.27;13.93;;;2.30;99.90;;;;;;5036789;28;20192;-69
2022/03/06 03:41:53;;;;;;;17.00;12.90;;;2.40;99.90;;;;;;5050431;28;20179;-69
2022/03/06 03:44:19;;;;;;;19.20;13.03;;;2.50;99.90;;;;;;5055937;28;20187;-68
2022/03/06 03:46:45;;;;;;;19.20;12.73;;;2.50;99.90;;;;;;5055497;28;20181;-69
2022/03/06 03:49:14;;;;;;;22.80;14.17;;;2.50;99.90;;;;;;5054709;28;20196;-69
2022/03/06 03:51:40;;;;;;;18.27;13.00;;;2.50;99.90;;;;;;5053725;28;20171;-68
2022/03/06 03:54:05;;;;;;;19.47;12.60;;;2.50;99.90;;;;;;5053948;28;20465;-70
2022/03/06 03:56:31;;;;;;;19.50;12.73;;;2.50;99.90;;;;;;5052791;28;20430;-69
2022/03/06 03:58:57;;;;;;;18.47;13.40;;;2.60;99.90;;;;;;5038749;28;20203;-69
2022/03/06 04:01:22;;;;;;;17.70;13.43;;;2.60;99.90;;;;;;5018224;28;20469;-69
2022/03/06 04:03:48;;;;;;;23.43;13.93;;;2.60;99.90;;;;;;5035074;28;20176;-69
2022/03/06 04:06:14;;;;;;;17.00;12.23;;;2.60;99.90;;;;;;5035028;28;20175;-69
2022/03/06 04:08:39;;;;;;;17.10;13.60;;;2.60;99.70;;;;;;5034778;28;20204;-69
2022/03/06 04:11:05;;;;;;;15.93;11.17;;;2.60;99.70;;;;;;5034837;28;20416;-69
2022/03/06 04:13:32;;;;;;;14.53;11.53;;;2.70;99.50;;;;;;5034487;28;20629;-68
2022/03/06 04:15:57;;;;;;;20.17;14.13;;;2.70;99.40;;;;;;5034865;28;20484;-69
2022/03/06 04:18:23;;;;;;;19.63;12.73;;;2.80;99.40;;;;;;5038922;28;20430;-70
2022/03/06 04:20:49;;;;;;;18.37;12.50;;;2.80;99.20;;;;;;5038940;28;20182;-69
2022/03/06 04:23:14;;;;;;;17.80;13.50;;;2.90;99.10;;;;;;5036218;28;20177;-68
2022/03/06 04:25:40;;;;;;;19.37;13.23;;;2.90;99.00;;;;;;5035400;28;20202;-70
2022/03/06 04:28:06;;;;;;;17.40;12.53;;;2.90;98.90;;;;;;5017388;28;20196;-68
2022/03/06 04:30:32;;;;;;;16.23;11.73;;;2.90;99.10;;;;;;5034546;28;20297;-69
2022/03/06 04:32:58;;;;;;;16.63;12.77;;;2.90;99.00;;;;;;5035147;28;20418;-69
2022/03/06 04:35:23;;;;;;;20.70;13.20;;;3.00;98.90;;;;;;5034959;28;20464;-69
2022/03/06 04:37:49;;;;;;;18.40;13.27;;;3.00;98.80;;;;;;5034689;28;20232;-69
2022/03/06 04:40:15;;;;;;;19.30;13.10;;;3.00;98.80;;;;;;5034881;28;20679;-68
2022/03/06 04:42:41;;;;;;;17.30;12.43;;;3.00;98.80;;;;;;5016274;28;20177;-68
2022/03/06 04:45:07;;;;;;;16.67;12.63;;;3.00;98.80;;;;;;5034169;28;20869;-69
2022/03/06 04:47:33;;;;;;;18.50;12.97;;;3.00;98.70;;;;;;5015896;28;20185;-69
2022/03/06 04:49:58;;;;;;;22.30;14.23;;;3.00;98.70;;;;;;5016500;28;20458;-69
2022/03/06 04:52:24;;;;;;;19.07;12.90;;;3.00;98.70;;;;;;5033846;28;20246;-68
2022/03/06 04:54:49;;;;;;;16.70;12.63;;;3.10;98.70;;;;;;5034309;28;20559;-69
2022/03/06 04:57:15;;;;;;;18.80;14.20;;;3.10;98.50;;;;;;5034679;28;20172;-69
2022/03/06 04:59:40;;;;;;;19.10;12.27;;;3.00;98.30;;;;;;5060964;22;20215;-69
2022/03/06 05:02:06;;;;;;;20.40;13.47;;;3.10;98.50;;;;;;5041775;28;20185;-69
2022/03/06 05:04:32;;;;;;;19.80;13.73;;;3.00;98.70;;;;;;5034350;28;20179;-70
2022/03/06 05:06:57;;;;;;;20.87;14.37;;;3.00;98.80;;;;;;5034293;28;20283;-70
2022/03/06 05:09:23;;;;;;;19.60;13.50;;;3.10;98.70;;;;;;5034362;28;20470;-69
2022/03/06 05:11:49;;;;;;;19.40;14.17;;;3.00;98.70;;;;;;5033551;28;20576;-70
2022/03/06 05:14:14;;;;;;;19.47;13.23;;;3.10;98.80;;;;;;5034515;28;20584;-70
2022/03/06 05:16:40;;;;;;;20.43;14.07;;;3.10;98.80;;;;;;5034484;28;20180;-71
2022/03/06 05:19:05;;;;;;;17.93;13.67;;;3.10;98.70;;;;;;5034127;28;20208;-70
2022/03/06 05:21:31;;;;;;;19.83;12.67;;;3.20;98.60;;;;;;5033464;28;20230;-70
2022/03/06 05:23:56;;;;;;;21.37;13.57;;;3.10;98.60;;;;;;5033538;28;20260;-69
2022/03/06 05:26:22;;;;;;;21.23;14.07;;;3.10;98.70;;;;;;5033692;28;20255;-70
2022/03/06 05:28:48;;;;;;;17.67;13.07;;;3.10;98.70;;;;;;5015721;28;20209;-70
2022/03/06 05:31:14;;;;;;;19.03;13.20;;;3.10;98.70;;;;;;5033396;28;20422;-70
2022/03/06 05:33:40;;;;;;;19.10;12.70;;;3.10;98.70;;;;;;5033258;28;20642;-70
2022/03/06 05:36:05;;;;;;;18.53;13.83;;;3.20;98.70;;;;;;5033650;28;20414;-70
2022/03/06 05:38:31;;;;;;;18.50;13.97;;;3.10;98.60;;;;;;5033757;28;20178;-69
2022/03/06 05:40:56;;;;;;;18.07;12.90;;;3.10;98.70;;;;;;5015699;28;20267;-70
2022/03/06 05:43:22;;;;;;;21.97;14.93;;;3.10;98.70;;;;;;5015274;28;20645;-69
2022/03/06 05:45:52;;;;;;;18.80;13.53;;;3.00;98.80;;;;;;5033278;28;20262;-68
2022/03/06 05:48:18;;;;;;;17.27;13.90;;;3.00;99.00;;;;;;5033860;28;20576;-69
2022/03/06 05:50:44;;;;;;;15.73;12.63;;;3.00;99.00;;;;;;5015976;28;20424;-69
2022/03/06 05:53:10;;;;;;;17.23;12.90;;;2.90;99.10;;;;;;5033158;28;20975;-69
2022/03/06 05:55:36;;;;;;;18.00;13.03;;;2.90;99.20;;;;;;5033198;28;20311;-69
2022/03/06 05:58:01;;;;;;;19.03;13.20;;;2.90;99.40;;;;;;5033442;28;20177;-68
2022/03/06 06:00:28;;;;;;;19.37;14.60;;;2.80;99.40;;;;;;5033712;28;20443;-69
2022/03/06 06:02:55;;;;;;;19.43;14.40;;;2.70;99.90;;;;;;5015842;28;20176;-69
2022/03/06 06:05:22;;;;;;;20.17;13.57;;;2.60;99.90;;;;;;5034245;28;20439;-69
2022/03/06 06:07:52;;;;;;;18.20;12.70;;;2.60;99.90;;;;;;5033778;28;20800;-70
2022/03/06 06:10:18;;;;;;;25.53;15.50;;;2.50;99.90;;;;;;5033879;28;20493;-71
2022/03/06 06:12:44;;;;;;;22.37;15.90;;;2.40;99.90;;;;;;5033537;28;20485;-70
2022/03/06 06:15:10;;;;;;;17.93;13.67;;;2.30;99.90;;;;;;5034206;28;20494;-69
2022/03/06 06:17:36;;;;;;;21.00;14.83;;;2.40;99.90;;;;;;5032662;28;20410;-69
2022/03/06 06:20:04;;;;;;;18.97;13.33;;;2.40;99.90;;;;;;5033560;28;20439;-70
2022/03/06 06:22:31;;;;;;;21.53;13.77;;;2.50;99.90;;;;;;5033466;28;20495;-70
2022/03/06 06:24:57;;;;;;;23.63;15.23;;;2.60;99.90;;;;;;5033569;28;20421;-68
2022/03/06 06:27:22;;;;;;;19.53;13.30;;;2.70;99.90;;;;;;5033157;28;20915;-69
2022/03/06 06:29:48;;;;;;;23.00;14.03;;;2.60;99.90;;;;;;5032955;28;20544;-70
2022/03/06 06:32:14;;;;;;;21.87;14.33;;;2.50;99.90;;;;;;5033031;28;20180;-70
2022/03/06 06:34:39;;;;;;;18.57;13.90;;;2.40;99.90;;;;;;5015771;28;20260;-70
2022/03/06 06:37:05;;;;;;;18.87;12.67;;;2.50;99.90;;;;;;5033556;28;20414;-71
2022/03/06 06:39:31;;;;;;;17.50;13.27;;;2.60;99.90;;;;;;5015763;28;20202;-69
2022/03/06 06:41:57;;;;;;;20.03;13.60;;;2.60;99.90;;;;;;5033480;28;20185;-71
2022/03/06 06:44:22;;;;;;;21.40;13.70;;;2.70;99.90;;;;;;5033119;28;20183;-70
2022/03/06 06:46:48;;;;;;;18.07;12.80;;;2.70;99.90;;;;;;5033167;28;20463;-70
2022/03/06 06:49:13;;;;;;;16.33;12.80;;;2.80;99.90;;;;;;5036955;28;20213;-70
2022/03/06 06:51:39;;;;;;;20.03;13.70;;;2.80;99.90;;;;;;5053433;28;20551;-70
2022/03/06 06:54:05;;;;;;;20.03;13.37;;;2.80;99.90;;;;;;5052663;28;20692;-70
2022/03/06 06:56:31;;;;;;;20.97;12.77;;;2.90;99.90;;;;;;5053201;28;20176;-70
2022/03/06 06:58:57;;;;;;;19.00;13.20;;;2.90;99.90;;;;;;5053591;28;21016;-70
2022/03/06 07:01:23;;;;;;;19.80;13.53;;;3.00;99.90;;;;;;5054816;28;20415;-70
2022/03/06 07:03:48;;;;;;;18.40;13.60;;;3.00;99.90;;;;;;5054386;28;20186;-70
2022/03/06 07:06:14;;;;;;;19.77;12.93;;;3.00;99.90;;;;;;5035856;28;20417;-71
2022/03/06 07:08:40;;;;;;;21.40;13.87;;;2.90;99.90;;;;;;5053944;28;20628;-70
2022/03/06 07:11:05;;;;;;;19.50;12.47;;;3.00;99.90;;;;;;5047597;28;20297;-68
2022/03/06 07:13:31;;;;;;;17.80;15.10;;;3.00;99.90;;;;;;5052849;28;20236;-70
2022/03/06 07:15:57;;;;;;;22.13;13.30;;;3.00;99.90;;;;;;5054104;28;20217;-71
2022/03/06 07:18:22;;;;;;;17.90;13.10;;;3.10;99.90;;;;;;5052200;28;20279;-73
2022/03/06 07:20:48;;;;;;;18.43;13.23;;;3.10;99.90;;;;;;5051905;28;20491;-70
2022/03/06 07:23:15;;;;;;;22.07;14.30;;;3.10;99.90;;;;;;5051463;28;20279;-70
2022/03/06 07:25:40;;;;;;;19.07;13.37;;;3.10;99.90;;;;;;5038574;28;20614;-68
2022/03/06 07:28:06;;;;;;;21.70;13.73;;;3.20;99.90;;;;;;5053368;28;20488;-71
2022/03/06 07:30:31;;;;;;;20.13;13.90;;;3.30;99.90;;;;;;5055977;28;20204;-68
2022/03/06 07:33:00;;;;;;;18.80;14.53;;;3.30;99.90;;;;;;5056094;28;20254;-69
2022/03/06 07:35:25;;;;;;;19.27;13.80;;;3.30;99.90;;;;;;5056990;28;20197;-70
2022/03/06 07:37:51;;;;;;;18.00;13.13;;;3.30;99.80;;;;;;5055639;28;20983;-69
2022/03/06 07:40:18;;;;;;;18.90;14.00;;;3.20;99.80;;;;;;5054922;28;20334;-70
2022/03/06 07:42:44;;;;;;;18.87;12.73;;;3.20;99.80;;;;;;5055583;28;20221;-69
2022/03/06 07:45:10;;;;;;;25.63;14.37;;;3.20;99.80;;;;;;5056087;28;20450;-68
2022/03/06 07:47:36;;;;;;;18.00;13.70;;;3.30;99.80;;;;;;5057108;28;20209;-69
2022/03/06 07:50:02;;;;;;;27.00;16.80;;;3.30;99.60;;;;;;5057984;28;20829;-69
2022/03/06 07:52:28;;;;;;;25.97;16.63;;;3.30;99.40;;;;;;5056610;28;20550;-70
2022/03/06 07:54:53;;;;;;;22.77;15.77;;;3.30;99.20;;;;;;5055905;28;20411;-70
2022/03/06 07:57:18;;;;;;;22.30;16.23;;;3.40;99.00;;;;;;5055821;28;20184;-69
2022/03/06 07:59:44;;;;;;;26.17;15.43;;;3.40;98.70;;;;;;5054942;28;20220;-69
2022/03/06 08:02:10;;;;;;;23.03;15.60;;;3.30;98.10;;;;;;5055460;28;20181;-69
2022/03/06 08:04:35;;;;;;;21.83;14.80;;;3.30;98.10;;;;;;5056420;28;20170;-70
2022/03/06 08:07:01;;;;;;;23.50;14.50;;;3.20;97.90;;;;;;5056493;28;20185;-69
2022/03/06 08:09:26;;;;;;;19.23;14.33;;;3.20;98.00;;;;;;5056420;28;20205;-70
2022/03/06 08:11:52;;;;;;;21.47;15.67;;;3.30;97.90;;;;;;5056362;28;20178;-69
2022/03/06 08:14:18;;;;;;;22.07;15.13;;;3.40;97.80;;;;;;5056205;28;20174;-69
2022/03/06 08:16:43;;;;;;;20.60;14.43;;;3.50;97.70;;;;;;5056250;28;20416;-69
2022/03/06 08:19:09;;;;;;;24.40;16.93;;;3.70;97.70;;;;;;5056134;28;20210;-70
2022/03/06 08:21:34;;;;;;;22.80;15.10;;;3.80;97.40;;;;;;5037949;28;20177;-69
2022/03/06 08:24:00;;;;;;;23.23;15.33;;;4.00;97.00;;;;;;5055487;28;20257;-69
2022/03/06 08:26:26;;;;;;;22.90;14.33;;;4.10;96.70;;;;;;5055201;28;20177;-69
2022/03/06 08:28:52;;;;;;;19.80;14.83;;;4.20;96.30;;;;;;5054820;28;20233;-70
2022/03/06 08:31:18;;;;;;;20.20;14.80;;;4.30;96.00;;;;;;5055924;28;20177;-70
2022/03/06 08:33:45;;;;;;;25.90;16.70;;;4.50;95.80;;;;;;5055151;28;21236;-70
2022/03/06 08:36:11;;;;;;;21.70;16.30;;;4.50;95.60;;;;;;5055906;28;20412;-68
2022/03/06 08:38:40;;;;;;;25.47;15.40;;;4.60;95.50;;;;;;5055874;28;20877;-69
2022/03/06 08:41:06;;;;;;;23.47;15.97;;;4.70;95.30;;;;;;5055351;28;20464;-70
2022/03/06 08:43:31;;;;;;;22.57;16.57;;;4.80;95.20;;;;;;5055053;28;20404;-70
2022/03/06 08:45:57;;;;;;;20.57;15.80;;;4.80;95.00;;;;;;5055202;28;20170;-70
2022/03/06 08:48:22;;;;;;;21.27;16.53;;;4.90;94.90;;;;;;5053838;28;20424;-70
2022/03/06 08:50:51;;;;;;;19.70;15.17;;;4.90;94.70;;;;;;5054993;28;20170;-70
2022/03/06 08:53:17;;;;;;;22.93;15.53;;;5.10;94.60;;;;;;5054474;28;20170;-70
2022/03/06 08:55:43;;;;;;;22.50;15.70;;;5.20;94.40;;;;;;5054834;28;20404;-70
2022/03/06 08:58:09;;;;;;;20.10;14.60;;;5.20;93.80;;;;;;5054395;28;20898;-70
2022/03/06 09:00:35;;;;;;;19.93;15.07;;;5.30;93.70;;;;;;5054055;28;20961;-70
2022/03/06 09:03:00;;;;;;;22.53;15.47;;;5.40;93.40;;;;;;5053190;28;20416;-70
2022/03/06 09:05:26;;;;;;;20.97;15.40;;;5.50;93.30;;;;;;5052514;28;20278;-71
2022/03/06 09:07:52;;;;;;;17.40;14.10;;;5.70;93.10;;;;;;5044224;28;20563;-69
2022/03/06 09:10:17;;;;;;;20.00;13.73;;;5.80;92.80;;;;;;5031951;28;20229;-70
2022/03/06 09:12:43;;;;;;;17.20;13.80;;;5.90;92.40;;;;;;5043679;28;20517;-70
2022/03/06 09:15:10;;;;;;;17.93;14.30;;;5.90;92.00;;;;;;5034924;28;20242;-70
2022/03/06 09:17:36;;;;;;;18.40;13.17;;;6.00;91.70;;;;;;5053070;28;20304;-70
2022/03/06 09:20:03;;;;;;;18.93;14.63;;;6.10;91.50;;;;;;5052910;28;20432;-71
2022/03/06 09:22:28;;;;;;;18.67;12.83;;;6.10;91.10;;;;;;5053089;28;20465;-71
2022/03/06 09:24:54;;;;;;;17.07;13.50;;;6.20;90.80;;;;;;5053344;28;20426;-70
2022/03/06 09:27:19;;;;;;;18.47;14.33;;;6.30;90.20;;;;;;5053485;28;20245;-70
2022/03/06 09:29:45;;;;;;;16.90;13.30;;;6.40;90.00;;;;;;5035799;28;20214;-70
2022/03/06 09:32:11;;;;;;;21.93;14.60;;;6.40;90.00;;;;;;5053480;28;20665;-69
2022/03/06 09:34:36;;;;;;;18.37;13.33;;;6.60;90.00;;;;;;5053980;28;20247;-71
2022/03/06 09:37:02;;;;;;;20.40;14.30;;;6.70;89.70;;;;;;5052933;28;20182;-71
2022/03/06 09:39:28;;;;;;;19.23;14.80;;;6.70;89.00;;;;;;5053653;28;20197;-70
2022/03/06 09:41:55;;;;;;;16.80;13.23;;;6.70;89.10;;;;;;5053177;28;20253;-69
2022/03/06 09:44:23;;;;;;;16.33;12.83;;;6.70;89.10;;;;;;5053057;28;20680;-70
2022/03/06 09:46:52;;;;;;;17.83;11.97;;;6.70;87.60;;;;;;5053241;28;20925;-69
2022/03/06 09:49:18;;;;;;;14.20;12.70;;;6.70;86.50;;;;;;5052398;28;21042;-69
2022/03/06 09:51:44;;;;;;;16.07;12.47;;;6.70;86.20;;;;;;5052193;28;20417;-70
2022/03/06 09:54:12;;;;;;;19.43;12.90;;;6.70;86.50;;;;;;5052852;28;20442;-70
2022/03/06 09:56:39;;;;;;;15.60;12.13;;;6.80;84.90;;;;;;5052716;28;21072;-70
2022/03/06 09:59:05;;;;;;;16.23;12.80;;;6.80;84.20;;;;;;5053049;28;20514;-70
2022/03/06 10:01:32;;;;;;;15.30;12.47;;;6.90;84.00;;;;;;5052488;28;21272;-71
2022/03/06 10:03:58;;;;;;;15.70;12.93;;;6.90;83.80;;;;;;5052578;28;20406;-70
2022/03/06 10:06:26;;;;;;;16.10;13.40;;;7.00;83.20;;;;;;5052174;28;20418;-69
2022/03/06 10:09:04;;;;;;;18.40;12.97;;;7.10;82.90;;;;;;5053055;28;20827;-69
2022/03/06 10:11:32;;;;;;;12.73;11.43;;;7.00;81.50;;;;;;5053700;28;20929;-69
2022/03/06 10:13:58;;;;;;;18.47;14.00;;;7.00;81.80;;;;;;5036251;28;20414;-71
2022/03/06 10:16:23;;;;;;;15.77;11.90;;;7.10;82.30;;;;;;5053283;28;20415;-70
2022/03/06 10:18:52;;;;;;;17.63;13.60;;;7.20;81.70;;;;;;5052800;28;20226;-70
2022/03/06 10:21:24;;;;;;;18.20;12.77;;;7.00;79.60;;;;;;5053016;28;20638;-71
2022/03/06 10:23:55;;;;;;;14.73;11.70;;;7.10;78.90;;;;;;5053302;28;20398;-70
2022/03/06 10:26:24;;;;;;;16.13;12.67;;;7.00;79.10;;;;;;5052837;28;20959;-70
2022/03/06 10:28:51;;;;;;;15.40;12.10;;;6.90;79.10;;;;;;5053598;28;21010;-70
2022/03/06 10:31:19;;;;;;;16.47;11.83;;;7.00;79.30;;;;;;5053718;28;20416;-69
2022/03/06 10:34:04;;;;;;;16.80;12.63;;;7.20;77.60;;;;;;5053757;28;20493;-70
2022/03/06 10:36:42;;;;;;;15.00;12.50;;;7.20;76.90;;;;;;5054036;28;20392;-72
2022/03/06 10:39:13;;;;;;;13.47;12.00;;;7.40;77.50;;;;;;5054636;28;20430;-70
2022/03/06 10:41:42;;;;;;;13.80;11.13;;;7.10;75.30;;;;;;5054572;28;20790;-70
2022/03/06 10:44:09;;;;;;;13.90;11.20;;;7.10;74.80;;;;;;5054667;28;20431;-70
2022/03/06 10:46:36;;;;;;;13.93;10.90;;;7.00;76.00;;;;;;5054556;28;20434;-69
2022/03/06 10:49:08;;;;;;;15.63;11.17;;;6.90;74.40;;;;;;5052006;28;20466;-70
2022/03/06 10:51:41;;;;;;;13.93;10.60;;;7.10;73.80;;;;;;5055219;28;20450;-71
2022/03/06 10:54:07;;;;;;;14.30;11.40;;;7.40;72.20;;;;;;5053407;28;20417;-70
2022/03/06 10:56:32;;;;;;;11.00;9.57;;;7.40;69.40;;;;;;5052562;28;20415;-71
2022/03/06 10:58:58;;;;;;;11.63;10.20;;;7.40;68.80;;;;;;5052683;28;20528;-70
2022/03/06 11:01:24;;;;;;;17.10;10.33;;;7.50;67.50;;;;;;5071103;28;20251;-69
2022/03/06 11:03:51;;;;;;;12.00;10.33;;;7.30;67.60;;;;;;5076135;28;20193;-69
2022/03/06 11:06:19;;;;;;;15.83;12.07;;;7.30;68.90;;;;;;5077456;28;20415;-70
2022/03/06 11:08:45;;;;;;;16.83;12.30;;;7.30;70.60;;;;;;5077708;28;20470;-70
2022/03/06 11:11:12;;;;;;;13.60;11.60;;;7.40;72.50;;;;;;5074608;28;20418;-69
2022/03/06 11:13:38;;;;;;;15.17;12.17;;;7.40;73.00;;;;;;5058918;28;20974;-70
2022/03/06 11:16:04;;;;;;;13.90;12.40;;;7.40;74.10;;;;;;5056287;28;20422;-69
2022/03/06 11:18:30;;;;;;;14.30;11.83;;;7.50;74.40;;;;;;5056346;28;20426;-70
2022/03/06 11:20:58;;;;;;;14.17;11.50;;;7.20;74.40;;;;;;5055870;28;20453;-69
2022/03/06 11:23:33;;;;;;;15.57;12.30;;;7.30;75.30;;;;;;5055598;28;20422;-71
2022/03/06 11:26:13;;;;;;;13.30;11.93;;;7.40;73.80;;;;;;5058976;28;21132;-70
2022/03/06 11:28:50;;;;;;;13.80;11.83;;;7.50;74.80;;;;;;5055790;28;20482;-69
2022/03/06 11:31:16;;;;;;;15.47;12.37;;;7.50;74.20;;;;;;5055787;28;20418;-70
2022/03/06 11:33:44;;;;;;;14.40;12.40;;;7.40;74.00;;;;;;5055570;28;20986;-71
2022/03/06 11:36:21;;;;;;;13.60;11.77;;;7.30;74.20;;;;;;5055495;28;20553;-71
2022/03/06 11:38:48;;;;;;;15.17;11.97;;;7.20;74.60;;;;;;5055670;28;20505;-70
2022/03/06 11:41:14;;;;;;;15.83;12.77;;;7.30;75.60;;;;;;5056930;28;20420;-70
2022/03/06 11:43:48;;;;;;;15.20;11.77;;;7.40;74.90;;;;;;5057091;28;20416;-71
2022/03/06 11:46:24;;;;;;;19.53;13.73;;;7.50;76.10;;;;;;5065561;28;20423;-68
2022/03/06 11:48:50;;;;;;;17.50;11.70;;;7.50;74.50;;;;;;5065811;28;20469;-67
2022/03/06 11:53:54;;;;;;;11.50;9.70;;;7.20;74.70;;;;;;5063732;28;20175;-69
2022/03/06 11:56:35;;;;;;;15.10;11.73;;;7.10;82.30;;;;;;5064902;28;20422;-69
2022/03/06 11:59:16;;;;;;;15.90;11.63;;;7.10;76.80;;;;;;5060757;28;20448;-70
2022/03/06 12:01:51;;;;;;;14.30;12.03;;;7.10;75.70;;;;;;5065142;28;20468;-70
2022/03/06 12:04:16;;;;;;;13.33;11.33;;;7.20;77.50;;;;;;5061370;28;20402;-69
2022/03/06 12:06:45;;;;;;;12.13;10.43;;;7.20;75.10;;;;;;5074877;28;20429;-70
2022/03/06 12:09:16;;;;;;;18.30;12.90;;;7.40;76.50;;;;;;5076662;28;20202;-67
2022/03/06 12:11:42;;;;;;;13.73;11.17;;;7.20;73.40;;;;;;5066908;28;20459;-69
2022/03/06 12:14:12;;;;;;;13.10;11.63;;;7.10;73.30;;;;;;5073670;28;20430;-70
2022/03/06 12:17:00;;;;;;;13.10;11.70;;;7.20;72.70;;;;;;5073800;28;20727;-69
2022/03/06 12:19:30;;;;;;;13.77;11.60;;;7.30;72.10;;;;;;5074184;28;20446;-69
2022/03/06 12:22:08;;;;;;;13.23;11.17;;;7.40;71.40;;;;;;5054663;28;20462;-70
2022/03/06 12:24:34;;;;;;;12.13;10.90;;;7.50;71.60;;;;;;5058007;28;20479;-66
2022/03/06 12:27:13;;;;;;;13.80;11.03;;;7.60;71.50;;;;;;5058659;28;20537;-70
2022/03/06 12:29:54;;;;;;;12.47;10.43;;;7.80;71.40;;;;;;5057298;28;20308;-69
2022/03/06 12:32:25;;;;;;;13.10;11.17;;;7.80;70.30;;;;;;5025690;28;20941;-69
2022/03/06 12:35:14;;;;;;;12.70;11.07;;;7.80;69.70;;;;;;5058153;28;20547;-68
2022/03/06 12:37:42;;;;;;;13.53;10.80;;;7.70;69.60;;;;;;5055793;28;20482;-70